Plainview, Missouri
Current Conditions -  °F | °C
As of 10:55 AM on Saturday 25 Oct 2014 (Local Time) from KIRK Reporting Station
Clear Clear  
Wind Chill: 68°   Ceiling: Unl
Heat Index: 68°   Visibility: 10mi
Dew Point: 53°   Wind: 7mph
Humidity: 59%   Direction: 20°NNE
Pressure: 30.09"   Gusts: NA
Location:  39.9265°N, 92.4529°W
Report Text: KIRK 251555Z AUTO 02006KT 10SM CLR 20/12 A3009 RMK AO2 SLP189 T02000117
Loading
Personal Weather Stations






























Interactive Weather Map
Tropical Storm Tracking
New forecast layout! Learn more

10-Day Weather Forecast

Advertisements
Track Severe Weather on mobile